Time;durP1;ratioP1;P1;durP2;ratioP2;P2;SDS_P1;SDS_P2;PMS_P1;PMS_P2;Temp;Humidity;BMP_temperature;BMP_pressure;BME280_temperature;BME280_humidity;BME280_pressure;Samples;Min_cycle;Max_cycle;Signal;HPM_P1;HPM_P2
2022/01/22 00:00:00;;;;;;;2.83;2.10;;;18.60;31.30;;;;;;5085505;28;48253;-21
2022/01/22 00:02:27;;;;;;;2.17;1.70;;;18.60;31.30;;;;;;5085142;28;46872;-21
2022/01/22 00:04:54;;;;;;;2.10;1.80;;;18.60;31.30;;;;;;5085433;28;46869;-21
2022/01/22 00:07:22;;;;;;;1.85;1.70;;;18.60;31.30;;;;;;5085424;28;47277;-20
2022/01/22 00:09:51;;;;;;;2.08;1.88;;;18.60;31.30;;;;;;5085065;28;47063;-20
2022/01/22 00:12:30;;;;;;;3.30;1.70;;;18.60;31.30;;;;;;5088020;27;47190;-21
2022/01/22 00:14:58;;;;;;;2.85;1.70;;;18.60;31.30;;;;;;5089137;28;46835;-21
2022/01/22 00:17:25;;;;;;;3.10;1.80;;;18.60;31.30;;;;;;5089011;27;46863;-21
2022/01/22 00:19:52;;;;;;;1.77;1.65;;;18.60;31.30;;;;;;5089011;28;48040;-21
2022/01/22 00:22:23;;;;;;;2.38;1.95;;;18.60;31.30;;;;;;5088840;28;47000;-21
2022/01/22 00:24:56;;;;;;;2.40;1.83;;;18.60;31.30;;;;;;5088742;28;46830;-20
2022/01/22 00:27:22;;;;;;;3.28;1.80;;;18.60;31.30;;;;;;5089657;28;46921;-20
2022/01/22 00:29:49;;;;;;;2.17;1.60;;;18.60;31.30;;;;;;5088682;28;47191;-20
2022/01/22 00:32:16;;;;;;;3.28;1.85;;;18.60;31.30;;;;;;5088802;28;47097;-21
2022/01/22 00:34:43;;;;;;;2.95;2.00;;;18.60;31.30;;;;;;5088481;28;46892;-21
2022/01/22 00:37:10;;;;;;;2.08;1.88;;;18.60;31.30;;;;;;5088944;28;47282;-20
2022/01/22 00:39:37;;;;;;;3.17;1.60;;;18.60;31.30;;;;;;5088506;28;48120;-21
2022/01/22 00:42:10;;;;;;;2.25;1.63;;;18.60;31.30;;;;;;5088454;28;46736;-20
2022/01/22 00:44:36;;;;;;;2.00;1.73;;;18.60;31.30;;;;;;5088353;28;46877;-21
2022/01/22 00:47:03;;;;;;;2.28;2.08;;;18.60;31.30;;;;;;5088466;28;47000;-20
2022/01/22 00:49:30;;;;;;;1.85;1.73;;;18.60;31.30;;;;;;5088346;28;47805;-20
2022/01/22 00:51:57;;;;;;;2.88;1.90;;;18.60;31.30;;;;;;5088556;28;47308;-21
2022/01/22 00:54:23;;;;;;;2.03;1.50;;;18.60;31.30;;;;;;5088306;28;46874;-21
2022/01/22 00:56:50;;;;;;;3.67;1.90;;;18.60;31.30;;;;;;5088637;28;47174;-21
2022/01/22 00:59:18;;;;;;;3.15;1.60;;;18.60;31.30;;;;;;5088309;28;48030;-21
2022/01/22 01:01:45;;;;;;;2.22;1.70;;;18.60;31.40;;;;;;5088222;28;47568;-21
2022/01/22 01:04:12;;;;;;;2.42;1.88;;;18.60;31.40;;;;;;5088332;28;46848;-20
2022/01/22 01:06:39;;;;;;;1.70;1.52;;;18.60;31.40;;;;;;5088204;28;46854;-20
2022/01/22 01:09:07;;;;;;;2.38;1.70;;;18.60;31.40;;;;;;5087834;27;46906;-21
2022/01/22 01:11:37;;;;;;;2.00;1.55;;;18.60;31.40;;;;;;5088467;28;46825;-20
2022/01/22 01:14:06;;;;;;;2.33;1.70;;;18.60;31.40;;;;;;5088130;28;47095;-20
2022/01/22 01:16:56;;;;;;;1.60;1.50;;;18.60;31.40;;;;;;5088074;28;47242;-20
2022/01/22 01:33:06;;;;;;;2.55;1.80;;;18.60;31.40;;;;;;5063864;27;47047;-14
2022/01/22 01:35:36;;;;;;;1.77;1.63;;;18.60;31.30;;;;;;5087671;28;46842;-13
2022/01/22 01:38:03;;;;;;;2.53;1.92;;;18.60;31.30;;;;;;5087961;28;46949;-13
2022/01/22 01:40:32;;;;;;;2.10;1.83;;;18.60;31.40;;;;;;5087625;28;47995;-14
2022/01/22 01:43:07;;;;;;;1.85;1.60;;;18.50;31.40;;;;;;5087064;28;47011;-14
2022/01/22 01:45:34;;;;;;;2.70;1.90;;;18.60;31.40;;;;;;5087785;28;46980;-14
2022/01/22 01:48:07;;;;;;;3.72;1.92;;;18.60;31.50;;;;;;5087862;28;46989;-14
2022/01/22 01:50:36;;;;;;;2.47;1.80;;;18.60;31.40;;;;;;5087550;28;46932;-13
2022/01/22 01:53:10;;;;;;;2.25;1.88;;;18.60;31.40;;;;;;5087349;28;47159;-14
2022/01/22 01:55:49;;;;;;;3.35;1.63;;;18.60;31.40;;;;;;5087351;28;46834;-13
2022/01/22 01:58:15;;;;;;;2.63;1.80;;;18.60;31.30;;;;;;5087437;28;46954;-13
2022/01/22 02:00:41;;;;;;;2.25;1.80;;;18.60;31.40;;;;;;5087105;28;48780;-20
2022/01/22 02:03:12;;;;;;;2.38;1.95;;;18.50;31.40;;;;;;5087002;28;46959;-21
2022/01/22 02:05:38;;;;;;;1.60;1.50;;;18.50;31.40;;;;;;5087468;28;46893;-21
2022/01/22 02:08:05;;;;;;;2.65;1.80;;;18.60;32.10;;;;;;5087326;28;47279;-21
2022/01/22 02:10:36;;;;;;;2.90;2.00;;;18.50;31.40;;;;;;5087315;28;48943;-21
2022/01/22 02:24:14;;;;;;;2.50;1.95;;;18.50;31.50;;;;;;5085946;28;46943;-21
2022/01/22 02:26:46;;;;;;;2.67;1.92;;;18.60;31.50;;;;;;5086753;28;46860;-21
2022/01/22 02:29:12;;;;;;;2.15;1.60;;;18.60;31.50;;;;;;5087227;27;46910;-21
2022/01/22 02:31:42;;;;;;;1.83;1.60;;;18.60;31.50;;;;;;5086863;28;46928;-20
2022/01/22 02:34:16;;;;;;;3.13;2.00;;;18.60;31.50;;;;;;5085933;27;47430;-20
2022/01/22 02:36:57;;;;;;;2.78;1.65;;;18.60;31.50;;;;;;5086695;28;46816;-20
2022/01/22 02:39:35;;;;;;;2.83;1.90;;;18.60;31.50;;;;;;5086839;28;46924;-20
2022/01/22 02:42:01;;;;;;;1.75;1.65;;;18.60;31.50;;;;;;5086756;28;48145;-21
2022/01/22 02:44:33;;;;;;;1.80;1.60;;;18.60;31.50;;;;;;5086434;28;46823;-20
2022/01/22 02:47:00;;;;;;;2.05;1.80;;;18.60;31.50;;;;;;5086719;28;46869;-21
2022/01/22 02:49:27;;;;;;;2.63;2.08;;;18.60;31.50;;;;;;5086397;28;47148;-21
2022/01/22 02:51:58;;;;;;;2.60;1.70;;;18.60;31.50;;;;;;5086729;28;46897;-21
2022/01/22 02:54:25;;;;;;;2.78;1.67;;;18.60;31.50;;;;;;5086495;27;46907;-21
2022/01/22 02:56:52;;;;;;;2.78;1.63;;;18.60;31.50;;;;;;5086220;28;46886;-20
2022/01/22 02:59:22;;;;;;;2.40;1.90;;;18.60;31.50;;;;;;5086560;28;47190;-20
2022/01/22 03:01:48;;;;;;;3.08;2.00;;;18.60;31.60;;;;;;5086090;28;48830;-20
2022/01/22 03:04:15;;;;;;;2.15;1.90;;;18.60;31.60;;;;;;5085997;28;46817;-20
2022/01/22 03:06:42;;;;;;;1.73;1.63;;;18.60;31.50;;;;;;5086211;28;46787;-21
2022/01/22 03:09:12;;;;;;;2.97;1.88;;;18.60;31.50;;;;;;5086345;28;46902;-21
2022/01/22 03:11:47;;;;;;;2.60;1.70;;;18.60;31.50;;;;;;5086540;28;47077;-20
2022/01/22 03:17:10;;;;;;;1.92;1.77;;;18.60;31.60;;;;;;5084124;28;47206;-20
2022/01/22 03:19:59;;;;;;;2.65;1.70;;;18.60;31.60;;;;;;5086261;28;46755;-21
2022/01/22 03:22:41;;;;;;;2.17;1.70;;;18.60;31.60;;;;;;5086113;28;47701;-21
2022/01/22 03:27:53;;;;;;;2.13;1.83;;;18.60;31.50;;;;;;5083070;28;46991;-21
2022/01/22 03:30:20;;;;;;;2.17;1.73;;;18.60;31.50;;;;;;5086246;28;46985;-21
2022/01/22 03:32:50;;;;;;;2.67;1.77;;;18.60;31.50;;;;;;5085715;28;46931;-21
2022/01/22 03:35:26;;;;;;;1.85;1.50;;;18.60;31.60;;;;;;5086218;28;46841;-21
2022/01/22 03:37:53;;;;;;;2.50;2.05;;;18.60;31.60;;;;;;5085812;28;46945;-21
2022/01/22 03:40:22;;;;;;;3.05;1.95;;;18.60;31.60;;;;;;5085951;28;47338;-21
2022/01/22 03:42:49;;;;;;;1.77;1.67;;;18.60;31.60;;;;;;5085791;28;49063;-20
2022/01/22 03:45:16;;;;;;;1.90;1.58;;;18.60;31.60;;;;;;5085154;28;46898;-20
2022/01/22 03:47:43;;;;;;;2.95;1.77;;;18.60;31.60;;;;;;5085229;28;46818;-20
2022/01/22 03:50:11;;;;;;;1.80;1.70;;;18.60;31.50;;;;;;5085984;28;47138;-20
2022/01/22 03:52:37;;;;;;;3.22;1.90;;;18.60;31.60;;;;;;5085293;28;47072;-21
2022/01/22 03:55:05;;;;;;;1.67;1.55;;;18.60;31.60;;;;;;5085402;28;46890;-21
2022/01/22 03:57:33;;;;;;;2.05;1.70;;;18.50;31.50;;;;;;5085435;27;46890;-21
2022/01/22 04:00:01;;;;;;;2.05;1.85;;;18.60;31.60;;;;;;5085583;28;46901;-20
2022/01/22 04:03:01;;;;;;;1.70;1.60;;;18.60;31.60;;;;;;5085555;28;49392;-21
2022/01/22 04:05:27;;;;;;;2.35;1.85;;;18.60;31.60;;;;;;5085198;28;46320;-21
2022/01/22 04:08:09;;;;;;;1.65;1.55;;;18.60;31.60;;;;;;5085069;27;46901;-21
2022/01/22 04:10:36;;;;;;;2.78;1.67;;;18.60;31.60;;;;;;5085458;28;47016;-20
2022/01/22 04:13:06;;;;;;;1.65;1.55;;;18.60;31.60;;;;;;5085475;28;47869;-21
2022/01/22 04:15:37;;;;;;;2.10;1.90;;;18.60;31.60;;;;;;5085373;28;47405;-21
2022/01/22 04:26:37;;;;;;;2.75;1.90;;;18.60;31.60;;;;;;5082425;28;46778;-21
2022/01/22 04:29:06;;;;;;;2.30;1.55;;;18.50;31.60;;;;;;5085230;28;46805;-21
2022/01/22 04:31:32;;;;;;;2.45;1.70;;;18.50;31.60;;;;;;5085151;28;47302;-20
2022/01/22 04:33:59;;;;;;;1.70;1.42;;;18.50;31.60;;;;;;5084415;28;47822;-20
2022/01/22 04:36:26;;;;;;;2.75;1.73;;;18.50;31.60;;;;;;5085118;28;47460;-21
2022/01/22 04:38:52;;;;;;;2.05;1.63;;;18.50;31.60;;;;;;5084950;28;47087;-21
2022/01/22 04:41:20;;;;;;;1.40;1.30;;;18.50;31.70;;;;;;5085400;28;47008;-20
2022/01/22 04:43:49;;;;;;;2.97;1.63;;;18.50;31.60;;;;;;5084482;28;47887;-21
2022/01/22 04:46:22;;;;;;;1.48;1.38;;;18.50;31.60;;;;;;5084975;28;46822;-21
2022/01/22 04:49:05;;;;;;;1.98;1.50;;;18.50;31.60;;;;;;5084769;28;47071;-21
2022/01/22 04:57:00;;;;;;;1.58;1.45;;;18.50;31.60;;;;;;5082790;27;46945;-21
2022/01/22 04:59:26;;;;;;;2.58;1.70;;;18.50;31.60;;;;;;5088533;28;47049;-22
2022/01/22 05:01:54;;;;;;;1.67;1.45;;;18.50;31.60;;;;;;5088374;28;47159;-22
2022/01/22 05:04:21;;;;;;;2.63;1.60;;;18.50;31.60;;;;;;5088146;28;49146;-21
2022/01/22 05:06:48;;;;;;;2.65;1.63;;;18.50;31.60;;;;;;5088322;28;47117;-21
2022/01/22 05:09:14;;;;;;;2.67;1.98;;;18.50;31.60;;;;;;5088015;28;46869;-21
2022/01/22 05:11:41;;;;;;;2.20;1.70;;;18.50;31.60;;;;;;5088500;28;46983;-21
2022/01/22 05:14:08;;;;;;;2.55;1.80;;;18.50;31.60;;;;;;5087907;28;48044;-21
2022/01/22 05:16:35;;;;;;;1.63;1.50;;;18.50;31.70;;;;;;5087844;28;46847;-21
2022/01/22 05:19:09;;;;;;;3.13;2.22;;;18.50;31.70;;;;;;5088054;28;46982;-21
2022/01/22 05:21:38;;;;;;;2.15;1.90;;;18.50;31.70;;;;;;5088162;28;47132;-20
2022/01/22 05:24:09;;;;;;;3.08;1.70;;;18.50;31.60;;;;;;5087752;28;47275;-20
2022/01/22 05:27:00;;;;;;;2.88;2.08;;;18.50;31.60;;;;;;5087744;27;47150;-20
2022/01/22 05:29:57;;;;;;;2.88;1.80;;;18.50;31.60;;;;;;5088029;28;46874;-21
2022/01/22 05:32:32;;;;;;;2.30;1.55;;;18.50;31.60;;;;;;5087530;28;47273;-21
2022/01/22 05:37:44;;;;;;;2.28;1.70;;;18.50;31.60;;;;;;5084927;28;46941;-20
2022/01/22 05:40:11;;;;;;;2.13;1.60;;;18.50;31.60;;;;;;5087437;28;46882;-22
2022/01/22 05:42:38;;;;;;;3.80;1.80;;;18.50;31.60;;;;;;5087450;28;46902;-21
2022/01/22 05:45:05;;;;;;;2.08;1.70;;;18.50;31.60;;;;;;5087715;28;47066;-21
2022/01/22 05:47:32;;;;;;;2.63;1.90;;;18.50;31.60;;;;;;5087971;28;47181;-21
2022/01/22 05:50:01;;;;;;;2.00;1.80;;;18.50;31.60;;;;;;5087641;28;46826;-21
2022/01/22 05:52:34;;;;;;;2.20;1.83;;;18.50;31.60;;;;;;5087824;27;47235;-20
2022/01/22 05:55:28;;;;;;;2.05;1.85;;;18.50;31.60;;;;;;5087515;28;48085;-21
2022/01/22 06:00:39;;;;;;;2.28;1.60;;;18.50;31.60;;;;;;5084943;28;47047;-21
2022/01/22 06:03:06;;;;;;;3.20;2.03;;;18.50;31.70;;;;;;5087421;28;46847;-21
2022/01/22 06:05:34;;;;;;;1.98;1.80;;;18.50;31.60;;;;;;5087308;28;48910;-21
2022/01/22 06:08:01;;;;;;;2.55;1.90;;;18.50;31.60;;;;;;5086737;28;46884;-21
2022/01/22 06:10:29;;;;;;;2.67;2.13;;;18.50;31.70;;;;;;5086382;28;46964;-21
2022/01/22 06:13:11;;;;;;;2.58;2.00;;;18.50;31.70;;;;;;5086993;28;47330;-21
2022/01/22 06:15:37;;;;;;;2.03;1.70;;;18.50;31.70;;;;;;5087135;28;47848;-21
2022/01/22 06:18:05;;;;;;;2.22;1.98;;;18.50;31.70;;;;;;5086701;28;47071;-21
2022/01/22 06:20:31;;;;;;;2.22;1.83;;;18.50;31.60;;;;;;5087039;28;46869;-21
2022/01/22 06:22:59;;;;;;;2.25;1.70;;;18.50;31.60;;;;;;5087061;28;47208;-21
2022/01/22 06:25:26;;;;;;;3.40;2.00;;;18.50;31.60;;;;;;5086880;28;48235;-21
2022/01/22 06:27:53;;;;;;;3.25;1.80;;;18.50;31.60;;;;;;5086749;28;46919;-20
2022/01/22 06:30:20;;;;;;;2.53;1.90;;;18.50;31.70;;;;;;5086989;28;46881;-21
2022/01/22 06:32:47;;;;;;;2.45;2.05;;;18.50;31.70;;;;;;5086655;27;47314;-20
2022/01/22 06:35:13;;;;;;;2.47;2.08;;;18.50;31.70;;;;;;5086920;28;48797;-21
2022/01/22 06:37:40;;;;;;;2.67;2.17;;;18.50;31.70;;;;;;5086872;28;47239;-21
2022/01/22 06:42:54;;;;;;;2.35;2.17;;;18.50;31.70;;;;;;5083819;28;46881;-21
2022/01/22 06:45:21;;;;;;;3.08;2.25;;;18.50;31.60;;;;;;5086616;28;46873;-21
2022/01/22 06:47:47;;;;;;;3.92;2.20;;;18.50;31.60;;;;;;5086299;28;47086;-21
2022/01/22 06:50:14;;;;;;;3.17;2.50;;;18.50;31.70;;;;;;5086500;28;46869;-20
2022/01/22 06:52:41;;;;;;;2.08;1.88;;;18.50;31.70;;;;;;5086437;28;47178;-20
2022/01/22 06:55:11;;;;;;;2.30;2.10;;;18.50;31.70;;;;;;5086224;28;48548;-21
2022/01/22 06:57:38;;;;;;;4.32;2.42;;;18.50;31.70;;;;;;5086284;28;47498;-21
2022/01/22 07:00:06;;;;;;;2.83;2.00;;;18.50;31.70;;;;;;5086247;28;46889;-21
2022/01/22 07:02:33;;;;;;;2.65;2.15;;;18.50;31.70;;;;;;5086432;27;46912;-21
2022/01/22 07:04:59;;;;;;;2.47;2.15;;;18.50;31.70;;;;;;5086337;28;49095;-21
2022/01/22 07:07:26;;;;;;;2.92;2.20;;;18.50;31.70;;;;;;5086500;28;47020;-21
2022/01/22 07:09:53;;;;;;;2.22;2.03;;;18.50;31.70;;;;;;5085963;28;46823;-21
2022/01/22 07:12:21;;;;;;;2.65;1.90;;;18.50;31.70;;;;;;5086595;28;47299;-21
2022/01/22 07:14:49;;;;;;;3.45;2.15;;;18.50;32.30;;;;;;5086159;28;47830;-20
2022/01/22 07:17:16;;;;;;;2.67;2.10;;;18.50;31.70;;;;;;5086210;28;47441;-20
2022/01/22 07:19:43;;;;;;;2.83;2.08;;;18.50;31.70;;;;;;5085742;28;46901;-21
2022/01/22 07:22:30;;;;;;;1.95;1.77;;;18.50;31.60;;;;;;5086264;28;47274;-21
2022/01/22 07:24:57;;;;;;;3.90;2.10;;;18.50;31.60;;;;;;5085324;28;46872;-21
2022/01/22 07:27:25;;;;;;;2.10;1.83;;;18.50;31.60;;;;;;5086071;28;47000;-20
2022/01/22 07:29:52;;;;;;;2.30;2.08;;;18.50;31.60;;;;;;5085939;28;47126;-20
2022/01/22 07:32:27;;;;;;;2.72;1.85;;;18.50;31.70;;;;;;5086081;28;46897;-21
2022/01/22 07:34:54;;;;;;;3.10;2.10;;;18.50;31.70;;;;;;5085620;28;47798;-21
2022/01/22 07:37:21;;;;;;;2.28;2.00;;;18.50;31.70;;;;;;5085787;28;47270;-21
2022/01/22 07:39:47;;;;;;;3.42;2.40;;;18.50;31.60;;;;;;5085735;28;46862;-21
2022/01/22 07:42:14;;;;;;;2.40;1.92;;;18.50;31.60;;;;;;5085735;28;47261;-20
2022/01/22 07:44:42;;;;;;;3.80;2.10;;;18.50;31.60;;;;;;5085579;28;47815;-20
2022/01/22 07:47:09;;;;;;;3.45;2.08;;;18.50;31.60;;;;;;5085387;28;46885;-21
2022/01/22 07:49:36;;;;;;;3.00;1.80;;;18.50;31.70;;;;;;5085363;28;46927;-20
2022/01/22 07:52:03;;;;;;;1.90;1.70;;;18.50;31.70;;;;;;5085883;28;46988;-21
2022/01/22 07:54:29;;;;;;;2.55;2.00;;;18.50;31.70;;;;;;5085432;28;49234;-21
2022/01/22 07:56:56;;;;;;;2.35;1.73;;;18.50;31.70;;;;;;5085261;28;46921;-21
2022/01/22 07:59:23;;;;;;;2.67;2.20;;;18.50;31.70;;;;;;5085463;28;46989;-21
2022/01/22 08:01:51;;;;;;;2.42;1.92;;;18.50;31.70;;;;;;5085691;28;47027;-20
2022/01/22 08:04:23;;;;;;;2.17;1.80;;;18.50;31.70;;;;;;5084907;28;46882;-20
2022/01/22 08:06:50;;;;;;;2.05;1.45;;;18.50;31.70;;;;;;5085421;28;46731;-21
2022/01/22 08:09:17;;;;;;;2.05;1.88;;;18.50;31.80;;;;;;5085322;28;46924;-21
2022/01/22 08:11:43;;;;;;;1.70;1.60;;;18.50;31.80;;;;;;5085639;28;46925;-21
2022/01/22 08:14:10;;;;;;;2.55;2.00;;;18.50;31.70;;;;;;5084840;28;46910;-21
2022/01/22 08:16:37;;;;;;;2.35;1.70;;;18.50;31.70;;;;;;5085123;28;46962;-21
2022/01/22 08:19:05;;;;;;;3.08;1.90;;;18.50;31.70;;;;;;5085020;28;46885;-21
2022/01/22 08:21:32;;;;;;;2.17;1.77;;;18.50;31.70;;;;;;5085196;28;47107;-21
2022/01/22 08:23:59;;;;;;;1.90;1.70;;;18.50;31.70;;;;;;5084796;28;47948;-21
2022/01/22 08:26:30;;;;;;;2.22;1.90;;;18.50;31.70;;;;;;5085021;28;46975;-21
2022/01/22 08:28:58;;;;;;;2.05;1.85;;;18.50;31.80;;;;;;5084850;28;46822;-20
2022/01/22 08:31:38;;;;;;;2.53;1.88;;;18.50;31.80;;;;;;5085613;27;47289;-21
2022/01/22 08:36:51;;;;;;;1.73;1.60;;;18.50;31.80;;;;;;5085839;28;46850;-21
2022/01/22 08:39:19;;;;;;;2.22;1.80;;;18.50;31.70;;;;;;5088535;27;46872;-21
2022/01/22 08:41:46;;;;;;;2.33;2.03;;;18.50;31.80;;;;;;5088614;28;46870;-21
2022/01/22 08:44:12;;;;;;;2.10;1.60;;;18.50;31.70;;;;;;5088453;27;47918;-21
2022/01/22 08:46:40;;;;;;;1.70;1.60;;;18.50;31.80;;;;;;5088466;28;46814;-21
2022/01/22 08:49:08;;;;;;;2.10;1.73;;;18.50;31.80;;;;;;5088653;28;47076;-21
2022/01/22 08:51:37;;;;;;;2.17;1.70;;;18.50;31.90;;;;;;5088723;28;47138;-20
2022/01/22 08:54:04;;;;;;;2.30;1.80;;;18.50;31.80;;;;;;5088204;28;46807;-21
2022/01/22 08:56:31;;;;;;;2.75;1.73;;;18.50;31.80;;;;;;5088344;28;47003;-21
2022/01/22 08:58:58;;;;;;;2.53;1.70;;;18.60;32.40;;;;;;5088273;28;47140;-21
2022/01/22 09:01:24;;;;;;;2.00;1.73;;;18.60;31.80;;;;;;5088725;28;46940;-21
2022/01/22 09:03:51;;;;;;;2.03;1.50;;;18.60;31.80;;;;;;5087969;28;48043;-21
2022/01/22 09:06:20;;;;;;;2.35;2.00;;;18.50;31.80;;;;;;5088396;28;46874;-20
2022/01/22 09:08:50;;;;;;;2.08;1.85;;;18.50;31.80;;;;;;5087770;28;47056;-13
2022/01/22 09:11:17;;;;;;;2.15;1.70;;;18.60;31.80;;;;;;5088463;28;46923;-14
2022/01/22 09:13:44;;;;;;;2.25;1.83;;;18.60;31.80;;;;;;5087635;28;48057;-14
2022/01/22 09:16:11;;;;;;;2.10;1.88;;;18.60;31.80;;;;;;5088159;28;46861;-14
2022/01/22 09:18:37;;;;;;;3.13;2.00;;;18.60;31.70;;;;;;5087658;28;46840;-14
2022/01/22 09:21:06;;;;;;;3.53;2.10;;;18.60;31.80;;;;;;5088371;28;46835;-13
2022/01/22 09:23:34;;;;;;;2.35;1.77;;;18.60;31.80;;;;;;5087768;28;48139;-13
2022/01/22 09:26:01;;;;;;;2.58;1.70;;;18.60;31.80;;;;;;5087989;28;46868;-13
2022/01/22 09:28:30;;;;;;;2.45;2.10;;;18.60;31.80;;;;;;5087755;27;47088;-14
2022/01/22 09:30:56;;;;;;;2.75;1.70;;;18.60;31.80;;;;;;5088338;28;47177;-13
2022/01/22 09:33:23;;;;;;;3.03;1.92;;;18.60;31.80;;;;;;5087488;28;47043;-14
2022/01/22 09:35:50;;;;;;;2.80;1.90;;;18.60;31.80;;;;;;5087423;28;46810;-14
2022/01/22 09:38:16;;;;;;;2.13;1.92;;;18.60;31.80;;;;;;5087764;28;46802;-13
2022/01/22 09:40:44;;;;;;;1.98;1.77;;;18.60;31.70;;;;;;5087631;28;47250;-14
2022/01/22 09:43:12;;;;;;;4.65;2.10;;;18.60;31.80;;;;;;5086678;28;47818;-13
2022/01/22 09:45:39;;;;;;;2.53;1.92;;;18.60;31.80;;;;;;5087164;28;46783;-14
2022/01/22 09:48:06;;;;;;;3.97;2.20;;;18.60;31.80;;;;;;5094209;27;46978;-14
2022/01/22 09:50:33;;;;;;;2.47;1.83;;;18.60;31.70;;;;;;5107339;27;46953;-14
2022/01/22 09:53:00;;;;;;;2.78;2.00;;;18.60;31.80;;;;;;5106322;27;46999;-14
2022/01/22 09:55:27;;;;;;;3.35;1.90;;;18.60;31.80;;;;;;5107602;27;46885;-14
2022/01/22 09:57:56;;;;;;;2.92;1.92;;;18.60;31.70;;;;;;5107157;27;46747;-14
2022/01/22 10:00:24;;;;;;;2.25;1.88;;;18.60;31.80;;;;;;5107872;27;47327;-14
2022/01/22 10:02:52;;;;;;;2.75;1.83;;;18.60;31.80;;;;;;5107621;27;47855;-14
2022/01/22 10:05:30;;;;;;;2.88;2.15;;;18.60;31.90;;;;;;5107804;27;47024;-14
2022/01/22 10:08:17;;;;;;;2.45;1.95;;;18.60;31.90;;;;;;5107667;27;46807;-15
2022/01/22 10:10:44;;;;;;;2.58;1.80;;;18.70;31.90;;;;;;5108194;27;46989;-14
2022/01/22 10:13:12;;;;;;;2.25;1.77;;;18.70;31.90;;;;;;5107145;27;48006;-14
2022/01/22 10:15:39;;;;;;;2.80;1.92;;;18.70;31.80;;;;;;5107434;27;47418;-14
2022/01/22 10:18:06;;;;;;;2.33;1.98;;;18.80;31.90;;;;;;5107370;27;46916;-14
2022/01/22 10:20:36;;;;;;;2.67;1.85;;;18.80;31.90;;;;;;5103325;27;46943;-14
2022/01/22 10:23:05;;;;;;;1.80;1.70;;;18.80;31.70;;;;;;5086389;28;48218;-14
2022/01/22 10:25:35;;;;;;;2.22;2.00;;;18.80;31.80;;;;;;5086893;28;46888;-13
2022/01/22 10:28:03;;;;;;;2.45;2.00;;;18.80;31.90;;;;;;5085270;27;46814;-14
2022/01/22 10:30:39;;;;;;;3.28;2.00;;;18.70;31.80;;;;;;5075647;28;46908;-21
2022/01/22 10:33:28;;;;;;;2.28;2.03;;;18.80;31.90;;;;;;5074058;28;47093;-21
2022/01/22 10:35:56;;;;;;;3.35;1.77;;;18.80;31.90;;;;;;5075734;28;47093;-20
2022/01/22 10:38:22;;;;;;;2.70;1.60;;;18.80;31.90;;;;;;5074349;28;47046;-21
2022/01/22 10:40:50;;;;;;;2.10;1.85;;;18.80;31.90;;;;;;5065322;28;46873;-21
2022/01/22 10:43:20;;;;;;;2.13;1.80;;;18.80;31.90;;;;;;5070343;28;46907;-21
2022/01/22 10:46:12;;;;;;;1.75;1.42;;;18.80;31.90;;;;;;5076256;28;47416;-21
2022/01/22 10:48:41;;;;;;;3.25;1.83;;;18.80;31.90;;;;;;5072964;28;47221;-21
2022/01/22 10:51:08;;;;;;;2.85;2.00;;;18.80;31.90;;;;;;5076360;28;47115;-21
2022/01/22 10:53:44;;;;;;;2.85;1.80;;;18.90;32.00;;;;;;5074773;28;49061;-21
2022/01/22 10:56:12;;;;;;;2.35;1.92;;;18.90;31.90;;;;;;5073799;27;46930;-21
2022/01/22 10:58:52;;;;;;;2.90;1.85;;;18.90;31.90;;;;;;5074402;28;47075;-21
2022/01/22 11:01:20;;;;;;;3.58;2.03;;;19.00;31.90;;;;;;5066427;28;47099;-21
2022/01/22 11:03:47;;;;;;;2.10;1.60;;;19.00;31.90;;;;;;5065845;28;47082;-21
2022/01/22 11:06:24;;;;;;;1.60;1.50;;;19.00;31.90;;;;;;5068722;28;47302;-20
2022/01/22 11:08:51;;;;;;;2.33;1.75;;;18.90;32.00;;;;;;5073494;28;46909;-21
2022/01/22 11:11:18;;;;;;;2.53;1.70;;;18.90;32.00;;;;;;5074780;28;46916;-21
2022/01/22 11:13:45;;;;;;;2.75;1.83;;;18.90;32.10;;;;;;5074211;28;47808;-21
2022/01/22 11:16:11;;;;;;;3.03;1.80;;;18.90;32.10;;;;;;5072079;28;47249;-21
2022/01/22 11:18:39;;;;;;;2.00;1.80;;;18.90;32.20;;;;;;5072821;27;46959;-21
2022/01/22 11:21:06;;;;;;;2.42;2.05;;;18.80;32.20;;;;;;5074660;28;47150;-21
2022/01/22 11:23:33;;;;;;;2.83;1.88;;;18.80;32.30;;;;;;5072684;28;48770;-21
2022/01/22 11:26:00;;;;;;;1.80;1.45;;;18.80;32.30;;;;;;5085354;28;46970;-21
2022/01/22 11:28:27;;;;;;;3.22;1.80;;;18.80;32.40;;;;;;5085638;28;46981;-21
2022/01/22 11:30:53;;;;;;;1.83;1.67;;;18.80;32.40;;;;;;5086184;28;46938;-21
2022/01/22 11:33:21;;;;;;;1.98;1.77;;;18.80;32.50;;;;;;5085278;28;47890;-21
2022/01/22 11:35:54;;;;;;;1.95;1.75;;;18.80;32.60;;;;;;5085900;28;46999;-21
2022/01/22 11:38:27;;;;;;;2.03;1.73;;;18.80;32.60;;;;;;5085705;28;46869;-21
2022/01/22 11:41:08;;;;;;;1.70;1.50;;;18.80;32.70;;;;;;5086061;28;47186;-21
2022/01/22 11:44:02;;;;;;;1.70;1.60;;;18.80;32.80;;;;;;5085494;28;47939;-21
2022/01/22 11:46:32;;;;;;;2.45;1.60;;;18.80;32.80;;;;;;5085752;28;46889;-21
2022/01/22 11:49:21;;;;;;;2.45;1.77;;;18.80;33.00;;;;;;5085589;28;46888;-21
2022/01/22 11:51:50;;;;;;;2.58;1.35;;;18.80;33.00;;;;;;5085750;28;46912;-21
2022/01/22 11:54:18;;;;;;;2.05;1.33;;;18.80;33.00;;;;;;5085452;28;47864;-20
2022/01/22 11:56:46;;;;;;;2.28;1.70;;;18.80;32.90;;;;;;5085412;28;47062;-21
2022/01/22 11:59:18;;;;;;;3.00;1.42;;;18.90;32.90;;;;;;5085484;28;46902;-21
2022/01/22 12:02:00;;;;;;;1.95;1.48;;;19.00;32.80;;;;;;5085704;28;46946;-21
2022/01/22 12:04:28;;;;;;;2.42;1.58;;;19.10;32.60;;;;;;5085255;28;49074;-20
2022/01/22 12:07:18;;;;;;;1.50;1.40;;;19.20;32.40;;;;;;5084354;28;47264;-21
2022/01/22 12:09:53;;;;;;;3.20;1.65;;;19.20;32.30;;;;;;5085423;28;46915;-21
2022/01/22 12:15:12;;;;;;;2.53;1.52;;;19.30;32.10;;;;;;5082520;28;47550;-21
2022/01/22 12:18:12;;;;;;;1.45;1.33;;;19.50;32.00;;;;;;5085223;28;46914;-21
2022/01/22 12:23:48;;;;;;;2.10;1.77;;;19.40;32.00;;;;;;5085283;28;46865;-21
2022/01/22 12:26:14;;;;;;;3.22;1.38;;;19.50;32.00;;;;;;5085202;27;48268;-21
2022/01/22 12:28:41;;;;;;;2.33;1.50;;;19.50;32.00;;;;;;5084731;28;46935;-21
2022/01/22 12:31:09;;;;;;;1.73;1.42;;;19.50;32.00;;;;;;5083171;28;46912;-21
2022/01/22 12:33:47;;;;;;;1.63;1.52;;;19.50;31.90;;;;;;5077706;28;46952;-21
2022/01/22 12:36:18;;;;;;;1.77;1.50;;;19.60;31.80;;;;;;5083004;28;48732;-20
2022/01/22 12:38:48;;;;;;;1.98;1.77;;;19.60;31.80;;;;;;5084662;28;47094;-21
2022/01/22 12:41:29;;;;;;;1.58;1.48;;;19.60;31.70;;;;;;5083305;28;46858;-21
2022/01/22 12:44:07;;;;;;;2.33;1.48;;;19.60;31.70;;;;;;5083858;28;47182;-21
2022/01/22 12:46:34;;;;;;;1.60;1.38;;;19.70;31.80;;;;;;5083680;28;47053;-20
2022/01/22 12:49:01;;;;;;;1.67;1.50;;;19.60;31.90;;;;;;5083737;28;47116;-20
2022/01/22 12:51:28;;;;;;;2.05;1.55;;;19.60;31.90;;;;;;5084009;28;46938;-20
2022/01/22 12:53:54;;;;;;;2.30;1.50;;;19.60;32.00;;;;;;5084314;28;46823;-21
2022/01/22 12:56:49;;;;;;;3.03;1.45;;;19.50;32.00;;;;;;5084651;28;48739;-21
2022/01/22 12:59:16;;;;;;;2.53;1.50;;;19.40;32.00;;;;;;5084208;28;47022;-21
2022/01/22 13:01:44;;;;;;;2.35;1.50;;;19.50;32.10;;;;;;5084840;28;46896;-21
2022/01/22 13:04:11;;;;;;;2.88;1.60;;;19.50;32.70;;;;;;5084837;28;47174;-21
2022/01/22 13:06:39;;;;;;;1.60;1.50;;;19.50;31.90;;;;;;5084110;28;46863;-21
2022/01/22 13:09:06;;;;;;;1.65;1.52;;;19.60;31.90;;;;;;5084404;28;47015;-21
2022/01/22 13:11:43;;;;;;;2.25;1.40;;;19.60;31.80;;;;;;5084693;28;46900;-21
2022/01/22 13:14:10;;;;;;;1.85;1.58;;;19.60;31.70;;;;;;5084865;28;47210;-21
2022/01/22 13:16:36;;;;;;;2.05;1.60;;;19.60;31.70;;;;;;5084197;28;46818;-21
2022/01/22 13:19:03;;;;;;;1.55;1.45;;;19.60;31.70;;;;;;5085166;27;46876;-21
2022/01/22 13:21:31;;;;;;;1.67;1.38;;;19.50;31.80;;;;;;5088031;28;46883;-21
2022/01/22 13:24:02;;;;;;;1.92;1.60;;;19.50;31.80;;;;;;5087651;28;46853;-21
2022/01/22 13:26:51;;;;;;;2.17;1.75;;;19.50;31.90;;;;;;5087319;28;47945;-21
2022/01/22 13:29:19;;;;;;;1.63;1.42;;;19.50;32.00;;;;;;5087400;28;46813;-21
2022/01/22 13:31:59;;;;;;;1.58;1.48;;;19.40;32.10;;;;;;5087652;28;46900;-21
2022/01/22 13:34:35;;;;;;;2.10;1.48;;;19.30;32.00;;;;;;5087606;28;46932;-20
2022/01/22 13:37:43;;;;;;;1.50;1.40;;;19.40;32.20;;;;;;5087482;28;49074;-20
2022/01/22 13:40:21;;;;;;;1.83;1.60;;;19.30;32.20;;;;;;5086982;28;46893;-21
2022/01/22 13:48:43;;;;;;;1.90;1.70;;;19.10;32.50;;;;;;5037315;28;47830;-21
2022/01/22 13:51:10;;;;;;;2.25;1.40;;;19.10;32.50;;;;;;5087573;27;46790;-20
2022/01/22 13:53:37;;;;;;;2.50;1.58;;;19.00;32.60;;;;;;5087207;28;46904;-20
2022/01/22 13:56:07;;;;;;;2.50;1.67;;;19.00;32.70;;;;;;5088011;28;46832;-20
2022/01/22 13:58:35;;;;;;;3.47;1.67;;;18.90;33.40;;;;;;5086954;27;46998;-20
2022/01/22 14:01:07;;;;;;;1.50;1.40;;;18.90;32.80;;;;;;5087571;27;47038;-21
2022/01/22 14:03:39;;;;;;;1.42;1.33;;;18.80;32.90;;;;;;5087472;27;46798;-20
2022/01/22 14:06:06;;;;;;;1.60;1.50;;;18.80;33.00;;;;;;5087519;28;47193;-20
2022/01/22 14:08:34;;;;;;;1.38;1.27;;;18.80;33.10;;;;;;5086871;28;48228;-20